Time;durP1;ratioP1;P1;durP2;ratioP2;P2;SDS_P1;SDS_P2;PMS_P1;PMS_P2;Temp;Humidity;BMP_temperature;BMP_pressure;BME280_temperature;BME280_humidity;BME280_pressure;Samples;Min_cycle;Max_cycle;Signal;HPM_P1;HPM_P2
2022/01/07 00:02:06;;;;;;;32.30;16.10;;;1.20;99.90;;;;;;5038166;28;20032;-52
2022/01/07 00:04:35;;;;;;;30.65;15.98;;;1.20;99.90;;;;;;5036639;28;20447;-51
2022/01/07 00:07:01;;;;;;;35.63;15.95;;;1.20;99.90;;;;;;5037609;28;20108;-54
2022/01/07 00:09:27;;;;;;;31.50;17.00;;;1.20;99.90;;;;;;5036016;28;20056;-49
2022/01/07 00:11:53;;;;;;;28.40;16.48;;;1.20;99.90;;;;;;5034836;28;20037;-53
2022/01/07 00:14:18;;;;;;;37.22;18.75;;;1.20;99.90;;;;;;5036077;28;20029;-51
2022/01/07 00:16:44;;;;;;;31.90;17.05;;;1.20;99.90;;;;;;5038035;28;20612;-50
2022/01/07 00:19:09;;;;;;;35.85;17.23;;;1.20;99.90;;;;;;5037459;28;20021;-52
2022/01/07 00:21:35;;;;;;;36.90;16.45;;;1.20;99.90;;;;;;5037429;28;20108;-52
2022/01/07 00:24:01;;;;;;;42.78;19.80;;;1.20;99.90;;;;;;5035757;28;20100;-54
2022/01/07 00:26:27;;;;;;;36.67;16.83;;;1.20;99.90;;;;;;5038128;28;20041;-50
2022/01/07 00:28:52;;;;;;;35.85;18.35;;;1.20;99.90;;;;;;5037323;28;20040;-50
2022/01/07 00:31:18;;;;;;;29.35;17.10;;;1.20;99.90;;;;;;5036230;28;20037;-51
2022/01/07 00:33:43;;;;;;;38.90;18.42;;;1.20;99.90;;;;;;5037976;28;20029;-50
2022/01/07 00:36:10;;;;;;;30.88;18.45;;;1.20;99.90;;;;;;5037025;28;20037;-49
2022/01/07 00:38:36;;;;;;;35.63;18.10;;;1.20;99.90;;;;;;5036163;28;20024;-52
2022/01/07 00:41:03;;;;;;;34.10;18.85;;;1.20;99.90;;;;;;5035732;28;20039;-54
2022/01/07 00:43:29;;;;;;;33.97;18.48;;;1.20;99.90;;;;;;5037453;28;20063;-50
2022/01/07 00:45:55;;;;;;;37.92;18.77;;;1.20;99.90;;;;;;5035456;28;20459;-48
2022/01/07 00:48:20;;;;;;;40.10;18.88;;;1.20;99.90;;;;;;5036692;28;20033;-49
2022/01/07 00:50:46;;;;;;;42.08;19.35;;;1.20;99.90;;;;;;5036580;28;20045;-50
2022/01/07 00:53:11;;;;;;;36.58;18.90;;;1.20;99.90;;;;;;5036464;28;20038;-54
2022/01/07 00:55:37;;;;;;;40.75;18.05;;;1.20;99.90;;;;;;5035715;28;20037;-51
2022/01/07 00:58:04;;;;;;;29.40;16.67;;;1.20;99.90;;;;;;5034671;28;20136;-52
2022/01/07 01:00:30;;;;;;;37.30;18.35;;;1.20;99.90;;;;;;5036554;28;20108;-50
2022/01/07 01:02:56;;;;;;;37.67;17.83;;;1.20;99.90;;;;;;5036953;28;20033;-49
2022/01/07 01:05:23;;;;;;;25.30;16.27;;;1.20;99.90;;;;;;5035792;28;20055;-53
2022/01/07 01:07:49;;;;;;;31.65;16.73;;;1.20;99.90;;;;;;5036133;28;20151;-52
2022/01/07 01:10:16;;;;;;;35.97;17.65;;;1.20;99.90;;;;;;5035717;28;20120;-51
2022/01/07 01:12:44;;;;;;;28.80;15.93;;;1.20;99.90;;;;;;5035214;28;20659;-52
2022/01/07 01:15:12;;;;;;;34.15;17.00;;;1.20;99.90;;;;;;5033411;28;20112;-51
2022/01/07 01:17:37;;;;;;;29.23;16.45;;;1.20;99.90;;;;;;5036102;28;20025;-52
2022/01/07 01:20:06;;;;;;;33.33;16.83;;;1.20;99.90;;;;;;5037438;28;20147;-50
2022/01/07 01:22:31;;;;;;;37.20;16.98;;;1.20;99.90;;;;;;5037337;28;20514;-51
2022/01/07 01:24:57;;;;;;;37.00;17.73;;;1.20;99.90;;;;;;5036166;28;20025;-53
2022/01/07 01:27:23;;;;;;;27.75;15.48;;;1.20;99.90;;;;;;5037519;28;20533;-55
2022/01/07 01:29:48;;;;;;;26.63;15.27;;;1.20;99.90;;;;;;5036150;28;20025;-50
2022/01/07 01:32:16;;;;;;;30.77;15.77;;;1.20;99.90;;;;;;5035583;28;20026;-48
2022/01/07 01:34:42;;;;;;;30.98;15.73;;;1.20;99.90;;;;;;5036650;28;20052;-51
2022/01/07 01:37:07;;;;;;;33.50;16.08;;;1.20;99.90;;;;;;5037734;28;20130;-54
2022/01/07 01:39:33;;;;;;;30.67;16.35;;;1.20;99.90;;;;;;5036327;28;20124;-51
2022/01/07 01:41:58;;;;;;;28.83;15.82;;;1.20;99.90;;;;;;5036873;28;20286;-52
2022/01/07 01:44:24;;;;;;;29.98;15.88;;;1.20;99.90;;;;;;5036893;28;20033;-53
2022/01/07 01:46:50;;;;;;;25.38;15.23;;;1.20;99.90;;;;;;5037147;28;20022;-53
2022/01/07 01:49:15;;;;;;;31.42;15.75;;;1.20;99.90;;;;;;5036666;28;20509;-53
2022/01/07 01:51:41;;;;;;;26.38;13.77;;;1.20;99.90;;;;;;5037648;28;20098;-50
2022/01/07 01:54:07;;;;;;;30.33;16.10;;;1.20;99.90;;;;;;5035553;28;20088;-50
2022/01/07 01:56:33;;;;;;;28.15;15.82;;;1.20;99.90;;;;;;5036614;28;20021;-50
2022/01/07 01:58:58;;;;;;;33.55;14.80;;;1.20;99.90;;;;;;5033537;28;20060;-51
2022/01/07 02:01:24;;;;;;;27.13;14.13;;;1.20;99.90;;;;;;5033049;28;20028;-53
2022/01/07 02:03:50;;;;;;;27.90;14.07;;;1.30;99.90;;;;;;5034828;28;20096;-49
2022/01/07 02:06:16;;;;;;;24.40;14.38;;;1.30;99.90;;;;;;5037292;28;20273;-50
2022/01/07 02:08:42;;;;;;;27.80;14.48;;;1.30;99.90;;;;;;5035500;28;20032;-55
2022/01/07 02:11:07;;;;;;;27.73;13.63;;;1.30;99.90;;;;;;5037086;28;20029;-52
2022/01/07 02:13:33;;;;;;;24.27;13.18;;;1.30;99.90;;;;;;5037208;28;20076;-53
2022/01/07 02:15:59;;;;;;;22.40;13.13;;;1.30;99.90;;;;;;5039700;28;20499;-57
2022/01/07 02:18:24;;;;;;;24.40;12.15;;;1.40;99.90;;;;;;5040950;28;20071;-56
2022/01/07 02:20:50;;;;;;;27.42;12.77;;;1.40;99.90;;;;;;5040571;28;20068;-53
2022/01/07 02:23:18;;;;;;;24.95;12.23;;;1.40;99.90;;;;;;5037814;28;20104;-49
2022/01/07 02:25:45;;;;;;;25.33;11.68;;;1.40;99.90;;;;;;5039939;28;20525;-52
2022/01/07 02:28:12;;;;;;;29.13;12.27;;;1.40;99.90;;;;;;5039046;28;20036;-57
2022/01/07 02:30:38;;;;;;;22.05;11.80;;;1.40;99.90;;;;;;5039486;28;20376;-54
2022/01/07 02:33:04;;;;;;;24.30;12.02;;;1.40;99.90;;;;;;5039336;28;20043;-52
2022/01/07 02:35:32;;;;;;;19.52;12.35;;;1.30;99.90;;;;;;5040355;28;20460;-53
2022/01/07 02:37:58;;;;;;;17.88;11.02;;;1.40;99.90;;;;;;5037820;28;20446;-50
2022/01/07 02:40:24;;;;;;;20.48;11.63;;;1.40;99.90;;;;;;5040918;28;20027;-54
2022/01/07 02:42:49;;;;;;;24.15;10.88;;;1.40;99.90;;;;;;5040370;28;20025;-53
2022/01/07 02:45:15;;;;;;;23.52;11.45;;;1.40;99.90;;;;;;5039507;28;20025;-50
2022/01/07 02:47:54;;;;;;;21.13;10.52;;;1.40;99.90;;;;;;5040248;28;20254;-51
2022/01/07 02:50:33;;;;;;;20.65;9.70;;;1.40;99.90;;;;;;5037244;28;20086;-49
2022/01/07 02:52:59;;;;;;;20.48;11.57;;;1.40;99.90;;;;;;5039222;28;20032;-54
2022/01/07 02:55:26;;;;;;;22.02;11.13;;;1.40;99.90;;;;;;5039541;28;20495;-52
2022/01/07 02:57:53;;;;;;;20.42;11.00;;;1.40;99.90;;;;;;5040189;28;20032;-53
2022/01/07 03:00:20;;;;;;;20.45;10.05;;;1.40;99.90;;;;;;5038239;28;20029;-51
2022/01/07 03:02:48;;;;;;;19.65;10.15;;;1.40;99.90;;;;;;5038785;28;20077;-56
2022/01/07 03:05:15;;;;;;;19.02;9.35;;;1.40;99.90;;;;;;5039404;28;20022;-53
2022/01/07 03:07:42;;;;;;;25.08;10.85;;;1.40;99.90;;;;;;5038215;28;20391;-53
2022/01/07 03:10:09;;;;;;;18.65;10.07;;;1.40;99.90;;;;;;5038375;28;20506;-49
2022/01/07 03:12:36;;;;;;;20.13;9.73;;;1.50;99.90;;;;;;5039106;28;20033;-58
2022/01/07 03:15:04;;;;;;;17.77;9.40;;;1.40;99.90;;;;;;5039497;28;20060;-49
2022/01/07 03:17:30;;;;;;;15.60;8.63;;;1.50;99.90;;;;;;5037827;28;20026;-52
2022/01/07 03:19:55;;;;;;;19.08;8.80;;;1.50;99.90;;;;;;5039417;28;20021;-53
2022/01/07 03:22:21;;;;;;;15.93;8.70;;;1.40;99.90;;;;;;5038237;28;20028;-49
2022/01/07 03:24:46;;;;;;;15.18;7.65;;;1.50;99.90;;;;;;5038514;28;20025;-56
2022/01/07 03:27:12;;;;;;;21.58;8.88;;;1.40;99.90;;;;;;5039616;28;20506;-53
2022/01/07 03:29:38;;;;;;;17.10;8.40;;;1.50;99.90;;;;;;5038381;28;20082;-51
2022/01/07 03:32:03;;;;;;;13.70;7.95;;;1.50;99.90;;;;;;5038794;28;20026;-51
2022/01/07 03:34:29;;;;;;;17.15;7.15;;;1.50;99.90;;;;;;5038199;28;20082;-50
2022/01/07 03:36:55;;;;;;;16.77;7.53;;;1.50;99.90;;;;;;5039054;28;20024;-57
2022/01/07 03:39:20;;;;;;;12.32;6.78;;;1.60;99.90;;;;;;5037617;28;20104;-50
2022/01/07 03:41:46;;;;;;;15.38;8.02;;;1.60;99.90;;;;;;5039355;28;20033;-52
2022/01/07 03:44:11;;;;;;;17.13;7.57;;;1.50;99.90;;;;;;5038418;28;20029;-55
2022/01/07 03:46:37;;;;;;;18.10;6.90;;;1.60;99.90;;;;;;5038981;28;20029;-53
2022/01/07 03:49:03;;;;;;;12.52;6.90;;;1.60;99.90;;;;;;5038347;28;20041;-49
2022/01/07 03:51:28;;;;;;;13.07;6.90;;;1.60;99.90;;;;;;5038941;28;20241;-49
2022/01/07 03:53:54;;;;;;;12.95;6.28;;;1.60;99.90;;;;;;5036866;28;20040;-50
2022/01/07 03:56:20;;;;;;;12.02;6.43;;;1.60;99.90;;;;;;5038399;28;20033;-53
2022/01/07 03:58:47;;;;;;;15.13;6.47;;;1.60;99.90;;;;;;5038542;28;20100;-51
2022/01/07 04:01:13;;;;;;;18.95;6.43;;;1.60;99.90;;;;;;5038922;28;20396;-48
2022/01/07 04:03:38;;;;;;;9.07;5.95;;;1.60;99.90;;;;;;5037616;28;20032;-49
2022/01/07 04:06:04;;;;;;;16.92;6.78;;;1.60;99.90;;;;;;5038190;28;20031;-51
2022/01/07 04:08:30;;;;;;;9.23;6.07;;;1.70;99.90;;;;;;5036080;28;20059;-54
2022/01/07 04:10:55;;;;;;;12.55;6.10;;;1.70;99.90;;;;;;5037819;28;20022;-50
2022/01/07 04:13:21;;;;;;;11.95;5.38;;;1.70;99.90;;;;;;5035486;28;20029;-53
2022/01/07 04:15:47;;;;;;;10.38;5.78;;;1.70;99.90;;;;;;5036037;28;20196;-50
2022/01/07 04:18:12;;;;;;;15.20;6.38;;;1.70;99.90;;;;;;5037986;28;20049;-52
2022/01/07 04:20:38;;;;;;;11.18;5.75;;;1.70;99.90;;;;;;5037113;28;20024;-49
2022/01/07 04:23:06;;;;;;;13.13;6.50;;;1.70;99.90;;;;;;5036905;28;20029;-52
2022/01/07 04:25:32;;;;;;;18.27;6.65;;;1.70;99.90;;;;;;5037536;28;20021;-49
2022/01/07 04:28:04;;;;;;;15.25;6.60;;;1.80;99.90;;;;;;5037440;28;20037;-51
2022/01/07 04:30:41;;;;;;;15.18;6.20;;;1.70;99.90;;;;;;5036445;28;20029;-54
2022/01/07 04:33:10;;;;;;;9.88;6.30;;;1.70;99.90;;;;;;5037844;28;20458;-49
2022/01/07 04:35:36;;;;;;;14.15;6.53;;;1.60;99.90;;;;;;5037344;28;20548;-52
2022/01/07 04:38:03;;;;;;;13.18;6.47;;;1.60;99.90;;;;;;5036541;28;20029;-54
2022/01/07 04:40:29;;;;;;;12.65;6.18;;;1.50;99.90;;;;;;5037915;28;20057;-54
2022/01/07 04:42:55;;;;;;;15.13;6.78;;;1.50;99.90;;;;;;5035101;28;20061;-55
2022/01/07 04:45:20;;;;;;;16.30;7.18;;;1.40;99.90;;;;;;5037224;28;20087;-50
2022/01/07 04:47:46;;;;;;;15.55;6.95;;;1.40;99.90;;;;;;5037968;28;20029;-53
2022/01/07 04:50:15;;;;;;;13.80;6.70;;;1.30;99.90;;;;;;5037596;28;20030;-51
2022/01/07 04:52:44;;;;;;;11.52;6.75;;;1.20;99.90;;;;;;5037185;28;20066;-52
2022/01/07 04:55:14;;;;;;;13.18;6.40;;;1.20;99.90;;;;;;5038072;28;20128;-54
2022/01/07 04:57:40;;;;;;;13.80;7.40;;;1.20;99.90;;;;;;5037981;28;20379;-52
2022/01/07 05:00:06;;;;;;;18.83;7.53;;;1.10;99.90;;;;;;5036748;28;20036;-51
2022/01/07 05:02:32;;;;;;;15.63;7.90;;;1.10;99.90;;;;;;5032607;28;20040;-54
2022/01/07 05:04:57;;;;;;;16.20;8.27;;;1.10;99.90;;;;;;5033716;28;20022;-51
2022/01/07 05:07:23;;;;;;;14.38;6.85;;;1.10;99.90;;;;;;5036525;28;20534;-50
2022/01/07 05:09:48;;;;;;;14.20;7.57;;;1.00;99.90;;;;;;5059757;22;20042;-56
2022/01/07 05:12:14;;;;;;;11.30;6.35;;;1.00;99.90;;;;;;5034118;28;20029;-55
2022/01/07 05:14:40;;;;;;;13.13;6.60;;;1.00;99.90;;;;;;5036926;28;20038;-54
2022/01/07 05:17:05;;;;;;;15.65;8.02;;;1.00;99.90;;;;;;5036378;28;20017;-56
2022/01/07 05:19:31;;;;;;;11.40;7.05;;;1.00;99.90;;;;;;5036565;28;20068;-54
2022/01/07 05:21:56;;;;;;;14.00;7.28;;;1.00;99.90;;;;;;5027967;28;20041;-55
2022/01/07 05:24:22;;;;;;;18.85;8.07;;;1.00;99.90;;;;;;5025762;28;20388;-56
2022/01/07 05:26:47;;;;;;;13.15;8.55;;;1.00;99.90;;;;;;5028330;28;20104;-56
2022/01/07 05:29:13;;;;;;;17.25;8.13;;;1.00;99.90;;;;;;5025074;28;20099;-55
2022/01/07 05:31:39;;;;;;;15.82;9.35;;;1.00;99.90;;;;;;5026337;28;20033;-56
2022/01/07 05:34:04;;;;;;;13.45;8.23;;;0.90;99.90;;;;;;5027076;28;20207;-54
2022/01/07 05:36:30;;;;;;;20.33;9.35;;;1.00;99.90;;;;;;5026482;28;20512;-57
2022/01/07 05:38:55;;;;;;;14.20;8.07;;;1.00;99.90;;;;;;5027309;28;20025;-56
2022/01/07 05:41:21;;;;;;;17.33;8.70;;;1.00;99.90;;;;;;5027602;28;20026;-57
2022/01/07 05:43:47;;;;;;;15.10;8.75;;;1.00;99.90;;;;;;5027596;28;20520;-57
2022/01/07 05:46:15;;;;;;;15.93;8.50;;;1.00;99.90;;;;;;5027612;28;20518;-58
2022/01/07 05:48:45;;;;;;;17.77;8.57;;;1.00;99.90;;;;;;5026296;28;20536;-57
2022/01/07 05:51:11;;;;;;;13.30;8.52;;;1.00;99.90;;;;;;5029712;28;20044;-58
2022/01/07 05:53:37;;;;;;;17.25;8.93;;;1.00;99.90;;;;;;5028747;28;20076;-57
2022/01/07 05:56:04;;;;;;;17.65;9.02;;;0.90;99.90;;;;;;5030956;28;20021;-58
2022/01/07 05:58:29;;;;;;;15.65;8.90;;;0.90;99.90;;;;;;5026427;28;20106;-57
2022/01/07 06:00:55;;;;;;;13.85;9.20;;;0.90;99.90;;;;;;5030537;28;20135;-56
2022/01/07 06:03:20;;;;;;;14.20;8.35;;;0.90;99.90;;;;;;5028636;28;20056;-55
2022/01/07 06:05:46;;;;;;;18.58;9.70;;;0.90;99.90;;;;;;5030834;28;20017;-55
2022/01/07 06:08:12;;;;;;;12.52;7.95;;;0.90;99.90;;;;;;5026805;28;20084;-58
2022/01/07 06:10:37;;;;;;;13.93;8.63;;;0.90;99.90;;;;;;5028595;28;20446;-57
2022/01/07 06:13:03;;;;;;;12.13;8.25;;;0.90;99.90;;;;;;5030828;28;20035;-58
2022/01/07 06:15:28;;;;;;;18.42;8.38;;;0.90;99.90;;;;;;5027783;28;20116;-57
2022/01/07 06:17:54;;;;;;;14.38;8.52;;;0.90;99.90;;;;;;5030003;28;20025;-58
2022/01/07 06:20:21;;;;;;;14.82;8.98;;;0.90;99.90;;;;;;5030583;28;20033;-59
2022/01/07 06:22:47;;;;;;;20.42;9.05;;;0.90;99.90;;;;;;5029839;28;20026;-58
2022/01/07 06:25:13;;;;;;;17.08;9.25;;;0.90;99.90;;;;;;5030320;28;20034;-58
2022/01/07 06:27:38;;;;;;;12.48;8.98;;;1.00;99.90;;;;;;5027669;28;20090;-58
2022/01/07 06:30:06;;;;;;;13.55;9.32;;;1.00;99.90;;;;;;5029914;28;20487;-58
2022/01/07 06:32:31;;;;;;;13.48;8.55;;;1.00;99.90;;;;;;5029623;28;20072;-58
2022/01/07 06:34:57;;;;;;;15.23;8.68;;;1.00;99.90;;;;;;5030865;28;20053;-55
2022/01/07 06:37:22;;;;;;;14.15;8.73;;;1.00;99.90;;;;;;5030363;28;20083;-57
2022/01/07 06:39:48;;;;;;;19.40;10.13;;;1.00;99.90;;;;;;5030572;28;20022;-57
2022/01/07 06:42:14;;;;;;;11.85;8.90;;;1.00;99.90;;;;;;5028322;28;20017;-56
2022/01/07 06:44:39;;;;;;;12.52;8.43;;;1.00;99.90;;;;;;5030139;28;20104;-58
2022/01/07 06:47:05;;;;;;;10.65;8.20;;;1.10;99.90;;;;;;5028437;28;20407;-57
2022/01/07 06:49:31;;;;;;;12.38;8.23;;;1.00;99.90;;;;;;5029697;28;20040;-56
2022/01/07 06:51:57;;;;;;;14.65;8.30;;;1.00;99.90;;;;;;5028300;28;20025;-59
2022/01/07 06:54:24;;;;;;;14.88;9.52;;;1.00;99.90;;;;;;5028429;28;20053;-59
2022/01/07 06:56:49;;;;;;;15.80;9.63;;;1.00;99.90;;;;;;5029475;28;20018;-57
2022/01/07 06:59:15;;;;;;;12.20;8.38;;;1.00;99.90;;;;;;5028465;28;20494;-58
2022/01/07 07:01:47;;;;;;;12.13;8.38;;;0.90;99.90;;;;;;5028528;28;20026;-59
2022/01/07 07:04:13;;;;;;;14.35;8.27;;;1.00;99.90;;;;;;5029894;28;20075;-58
2022/01/07 07:06:39;;;;;;;12.68;8.98;;;1.00;99.90;;;;;;5030544;28;20029;-59
2022/01/07 07:09:04;;;;;;;12.40;7.75;;;1.00;99.90;;;;;;5030143;28;20032;-58
2022/01/07 07:11:30;;;;;;;18.33;8.68;;;1.00;99.90;;;;;;5029699;28;20074;-56
2022/01/07 07:13:56;;;;;;;15.40;9.07;;;1.00;99.90;;;;;;5029891;28;20516;-58
2022/01/07 07:16:22;;;;;;;14.13;7.95;;;1.00;99.90;;;;;;5028425;28;20024;-57
2022/01/07 07:18:48;;;;;;;11.25;8.18;;;1.00;99.90;;;;;;5029538;28;20018;-59
2022/01/07 07:21:14;;;;;;;15.85;9.48;;;1.00;99.90;;;;;;5029568;28;20104;-58
2022/01/07 07:23:39;;;;;;;11.98;8.43;;;1.00;99.90;;;;;;5029790;28;20030;-58
2022/01/07 07:26:05;;;;;;;15.10;7.53;;;1.00;99.90;;;;;;5029620;28;20056;-57
2022/01/07 07:28:31;;;;;;;12.77;8.70;;;1.00;99.90;;;;;;5027489;28;20025;-56
2022/01/07 07:31:00;;;;;;;10.95;7.13;;;1.00;99.90;;;;;;5029138;28;20025;-56
2022/01/07 07:38:38;;;;;;;11.13;8.27;;;1.00;99.90;;;;;;5029287;28;20088;-58
2022/01/07 07:41:06;;;;;;;11.18;7.65;;;1.00;99.90;;;;;;5027519;28;20056;-56
2022/01/07 07:43:32;;;;;;;14.82;8.93;;;1.10;99.90;;;;;;5028024;28;20025;-59
2022/01/07 07:45:58;;;;;;;10.85;7.93;;;1.10;99.90;;;;;;5027990;28;20400;-56
2022/01/07 07:48:24;;;;;;;15.68;9.48;;;1.00;99.90;;;;;;5027196;28;20068;-57
2022/01/07 07:50:50;;;;;;;11.25;8.38;;;1.10;99.90;;;;;;5027870;28;20064;-57
2022/01/07 07:53:15;;;;;;;11.70;9.20;;;1.10;99.90;;;;;;5028102;28;20417;-57
2022/01/07 07:55:44;;;;;;;12.48;7.93;;;1.10;99.90;;;;;;5029220;28;20032;-57
2022/01/07 07:58:10;;;;;;;13.00;8.32;;;1.10;99.90;;;;;;5029417;28;20026;-58
2022/01/07 08:00:35;;;;;;;17.77;10.32;;;1.10;99.90;;;;;;5029220;28;20033;-57
2022/01/07 08:03:01;;;;;;;12.13;8.55;;;1.10;99.90;;;;;;5029393;28;20075;-58
2022/01/07 08:05:27;;;;;;;13.85;9.38;;;1.10;99.90;;;;;;5029025;28;20025;-57
2022/01/07 08:07:52;;;;;;;13.70;8.75;;;1.10;99.90;;;;;;5027388;28;20034;-58
2022/01/07 08:10:23;;;;;;;13.55;9.32;;;1.10;99.90;;;;;;5027200;28;20033;-57
2022/01/07 08:13:27;;;;;;;13.10;9.63;;;1.10;99.90;;;;;;5027442;28;20025;-58
2022/01/07 08:15:58;;;;;;;16.73;9.82;;;1.10;99.90;;;;;;5026581;28;20204;-59
2022/01/07 08:18:27;;;;;;;14.57;8.80;;;1.10;99.90;;;;;;5027581;28;20025;-58
2022/01/07 08:20:57;;;;;;;17.25;8.45;;;1.10;99.90;;;;;;5025808;28;20088;-59
2022/01/07 08:23:23;;;;;;;15.30;9.65;;;1.20;99.90;;;;;;5026964;28;20032;-59
2022/01/07 08:25:49;;;;;;;16.80;9.77;;;1.20;99.90;;;;;;5028002;28;20025;-59
2022/01/07 08:28:16;;;;;;;11.73;9.48;;;1.20;99.90;;;;;;5027573;28;20384;-57
2022/01/07 08:31:14;;;;;;;13.45;9.48;;;1.20;99.90;;;;;;5026264;28;20053;-58
2022/01/07 08:36:26;;;;;;;16.10;9.13;;;1.20;99.90;;;;;;5023672;28;20105;-59
2022/01/07 08:38:53;;;;;;;15.98;10.30;;;1.20;99.90;;;;;;5026940;28;20021;-59
2022/01/07 08:41:21;;;;;;;13.88;9.80;;;1.20;99.90;;;;;;5022993;28;20079;-59
2022/01/07 08:43:46;;;;;;;15.02;10.20;;;1.20;99.90;;;;;;5026597;28;20033;-58
2022/01/07 08:46:12;;;;;;;15.20;9.43;;;1.20;99.90;;;;;;5027699;28;20554;-58
2022/01/07 08:48:38;;;;;;;14.57;9.80;;;1.20;99.90;;;;;;5028103;28;20109;-57
2022/01/07 08:51:07;;;;;;;16.48;10.10;;;1.20;99.90;;;;;;5026158;28;20087;-58
2022/01/07 08:53:34;;;;;;;14.05;9.75;;;1.20;99.90;;;;;;5026203;28;20044;-58
2022/01/07 08:55:59;;;;;;;13.25;9.45;;;1.20;99.90;;;;;;5025468;28;20150;-59
2022/01/07 08:58:26;;;;;;;9.98;8.48;;;1.20;99.90;;;;;;5027368;28;20030;-59
2022/01/07 09:00:51;;;;;;;12.15;8.43;;;1.20;99.90;;;;;;5024508;28;20021;-60
2022/01/07 09:03:17;;;;;;;16.10;9.30;;;1.20;99.90;;;;;;5025228;28;20038;-60
2022/01/07 09:05:43;;;;;;;11.63;9.05;;;1.20;99.90;;;;;;5023797;28;20107;-59
2022/01/07 09:08:11;;;;;;;11.80;8.90;;;1.20;99.90;;;;;;5024033;28;20515;-60
2022/01/07 09:10:39;;;;;;;13.82;8.82;;;1.10;99.90;;;;;;5024942;28;20527;-59
2022/01/07 09:13:06;;;;;;;11.93;7.78;;;1.10;99.90;;;;;;5027112;28;20038;-60
2022/01/07 09:15:32;;;;;;;11.27;8.10;;;1.10;99.90;;;;;;5026242;28;20045;-58
2022/01/07 09:17:58;;;;;;;10.95;7.85;;;1.10;99.90;;;;;;5027506;28;20029;-58
2022/01/07 09:20:24;;;;;;;11.52;8.38;;;1.00;99.90;;;;;;5026503;28;20025;-60
2022/01/07 09:22:50;;;;;;;10.73;7.80;;;1.00;99.90;;;;;;5026559;28;20522;-60
2022/01/07 09:25:17;;;;;;;9.63;8.18;;;1.00;99.90;;;;;;5030646;28;20030;-59
2022/01/07 09:27:43;;;;;;;10.73;8.18;;;1.00;99.90;;;;;;5029721;28;20037;-57
2022/01/07 09:30:11;;;;;;;11.68;7.72;;;1.00;99.90;;;;;;5031498;28;20029;-58
2022/01/07 09:32:37;;;;;;;15.05;9.27;;;1.00;99.90;;;;;;5029134;28;20026;-59
2022/01/07 09:35:03;;;;;;;11.48;8.27;;;1.00;99.90;;;;;;5030785;28;20044;-60
2022/01/07 09:37:29;;;;;;;10.05;8.10;;;1.00;99.90;;;;;;5031105;28;20488;-61
2022/01/07 09:39:55;;;;;;;11.35;8.13;;;1.00;99.90;;;;;;5032013;28;20053;-60
2022/01/07 09:42:20;;;;;;;11.75;7.80;;;1.00;99.90;;;;;;5031799;28;20029;-60
2022/01/07 09:44:46;;;;;;;13.05;8.70;;;1.00;99.90;;;;;;5031478;28;20132;-60
2022/01/07 09:47:12;;;;;;;12.52;8.18;;;1.00;99.90;;;;;;5032006;28;20483;-60
2022/01/07 09:49:39;;;;;;;11.23;8.68;;;1.00;99.90;;;;;;5030221;28;20034;-59
2022/01/07 09:52:05;;;;;;;11.40;8.32;;;1.00;99.90;;;;;;5027975;28;20446;-58
2022/01/07 09:54:37;;;;;;;12.07;9.00;;;1.00;99.90;;;;;;5029163;28;20483;-60
2022/01/07 09:57:04;;;;;;;10.23;8.15;;;1.00;99.90;;;;;;5026633;28;20072;-60
2022/01/07 09:59:30;;;;;;;16.35;8.88;;;1.00;99.90;;;;;;5030659;28;20046;-60
2022/01/07 10:02:09;;;;;;;10.35;8.45;;;1.00;99.90;;;;;;5030646;28;20033;-60
2022/01/07 10:04:39;;;;;;;10.95;7.93;;;1.00;99.90;;;;;;5030338;28;20026;-60
2022/01/07 10:07:20;;;;;;;12.60;9.43;;;1.00;99.90;;;;;;5028677;28;20030;-60
2022/01/07 10:10:04;;;;;;;12.43;9.75;;;1.10;99.90;;;;;;5023575;28;20036;-59
2022/01/07 10:12:52;;;;;;;12.68;9.13;;;1.10;99.90;;;;;;5024024;28;20072;-59
2022/01/07 10:15:23;;;;;;;11.55;9.20;;;1.00;99.90;;;;;;5024431;28;20052;-59
2022/01/07 10:17:56;;;;;;;11.18;8.75;;;1.10;99.90;;;;;;5023677;28;20049;-61
2022/01/07 10:20:25;;;;;;;13.98;10.15;;;1.10;99.90;;;;;;5023126;28;20022;-59
2022/01/07 10:23:14;;;;;;;12.45;9.40;;;1.00;99.90;;;;;;5023808;28;20021;-59
2022/01/07 10:25:43;;;;;;;11.75;9.38;;;1.00;99.90;;;;;;5021937;28;20173;-60
2022/01/07 10:28:16;;;;;;;13.27;10.10;;;1.00;99.90;;;;;;5021029;28;20042;-58
2022/01/07 10:30:45;;;;;;;14.48;10.32;;;1.10;99.90;;;;;;5023144;28;20025;-60
2022/01/07 10:33:30;;;;;;;11.25;9.57;;;1.10;99.90;;;;;;5021785;28;20102;-60
2022/01/07 10:36:05;;;;;;;15.40;9.57;;;1.10;99.90;;;;;;5021008;28;20017;-59
2022/01/07 10:38:31;;;;;;;17.35;11.25;;;1.10;99.90;;;;;;5023659;28;20568;-60
2022/01/07 10:40:59;;;;;;;13.57;11.15;;;1.20;99.90;;;;;;5030783;28;20053;-60
2022/01/07 10:43:32;;;;;;;13.73;10.90;;;1.20;99.90;;;;;;5027888;28;20030;-60
2022/01/07 10:46:11;;;;;;;16.17;11.57;;;1.20;99.90;;;;;;5027933;28;20526;-58
2022/01/07 10:48:39;;;;;;;16.23;11.48;;;1.20;99.90;;;;;;5027925;28;20021;-59
2022/01/07 10:51:07;;;;;;;15.50;12.80;;;1.30;99.90;;;;;;5028921;28;20029;-60
2022/01/07 10:53:33;;;;;;;15.43;11.65;;;1.30;99.90;;;;;;5028611;28;20057;-58
2022/01/07 10:56:09;;;;;;;14.30;12.05;;;1.20;99.90;;;;;;5029980;28;20519;-60
2022/01/07 10:58:51;;;;;;;18.53;12.67;;;1.30;99.90;;;;;;5027342;28;20611;-59
2022/01/07 11:01:19;;;;;;;16.90;11.63;;;1.30;99.90;;;;;;5025074;28;20477;-60
2022/01/07 11:03:56;;;;;;;15.82;11.88;;;1.30;99.90;;;;;;5029572;28;20032;-60
2022/01/07 11:06:23;;;;;;;17.15;12.75;;;1.40;99.90;;;;;;5026950;28;20125;-60
2022/01/07 11:08:50;;;;;;;18.67;13.50;;;1.40;99.90;;;;;;5024254;28;20036;-61
2022/01/07 11:11:18;;;;;;;20.65;13.15;;;1.40;99.90;;;;;;5026106;28;20090;-60
2022/01/07 11:13:44;;;;;;;18.77;13.82;;;1.40;99.90;;;;;;5027633;28;20029;-60
2022/01/07 11:16:10;;;;;;;22.50;13.65;;;1.50;99.90;;;;;;5028528;28;20500;-60
2022/01/07 11:18:37;;;;;;;17.27;13.68;;;1.50;99.90;;;;;;5026189;28;20034;-59
2022/01/07 11:21:04;;;;;;;19.13;13.70;;;1.50;99.90;;;;;;5029476;28;20018;-60
2022/01/07 11:23:31;;;;;;;20.60;14.65;;;1.50;99.90;;;;;;5027988;28;20094;-60
2022/01/07 11:26:01;;;;;;;18.25;13.57;;;1.60;99.90;;;;;;5030219;28;20017;-60
2022/01/07 11:28:27;;;;;;;21.27;14.75;;;1.60;99.90;;;;;;5027735;28;20029;-60
2022/01/07 11:31:20;;;;;;;19.65;14.63;;;1.70;99.90;;;;;;5029869;28;20025;-60
2022/01/07 11:33:46;;;;;;;26.27;15.15;;;1.70;99.90;;;;;;5027626;28;20388;-58
2022/01/07 11:36:29;;;;;;;21.00;15.68;;;1.70;99.90;;;;;;5028662;28;20021;-58
2022/01/07 11:39:02;;;;;;;21.13;14.95;;;1.80;99.90;;;;;;5024985;28;20033;-60
2022/01/07 11:41:47;;;;;;;22.30;15.70;;;1.70;99.90;;;;;;5028634;28;20018;-59
2022/01/07 11:44:22;;;;;;;21.17;15.50;;;1.80;99.90;;;;;;5026663;28;20076;-59
2022/01/07 11:46:48;;;;;;;25.13;16.42;;;1.80;99.90;;;;;;5029202;28;20026;-58
2022/01/07 11:49:35;;;;;;;21.35;16.73;;;1.80;99.90;;;;;;5026773;28;20032;-60
2022/01/07 11:52:30;;;;;;;62.72;36.78;;;1.80;99.90;;;;;;5028856;28;20475;-59
2022/01/07 11:55:31;;;;;;;25.98;18.30;;;1.90;99.90;;;;;;5026430;28;20021;-60
2022/01/07 11:58:05;;;;;;;23.10;16.10;;;1.90;99.90;;;;;;5028510;28;20032;-59
2022/01/07 12:00:50;;;;;;;28.90;19.45;;;1.90;99.90;;;;;;5026154;28;20032;-59
2022/01/07 12:03:56;;;;;;;26.92;18.55;;;2.00;99.90;;;;;;5027022;28;20057;-59
2022/01/07 12:06:31;;;;;;;31.30;21.55;;;2.00;99.90;;;;;;5027537;28;20053;-60
2022/01/07 12:08:56;;;;;;;30.10;19.23;;;1.90;99.90;;;;;;5026917;28;20273;-59
2022/01/07 12:11:23;;;;;;;29.65;21.45;;;2.00;99.90;;;;;;5026937;28;20029;-59
2022/01/07 12:13:48;;;;;;;32.53;21.52;;;2.00;99.90;;;;;;5026204;28;20049;-59
2022/01/07 12:16:21;;;;;;;28.60;17.48;;;2.00;99.90;;;;;;5029121;28;20095;-57
2022/01/07 12:18:47;;;;;;;32.53;22.50;;;2.10;99.90;;;;;;5026347;28;20047;-60
2022/01/07 12:21:12;;;;;;;26.55;19.65;;;2.10;99.90;;;;;;5028770;28;20365;-60
2022/01/07 12:23:39;;;;;;;29.23;18.73;;;2.10;99.90;;;;;;5028215;28;20381;-60
2022/01/07 12:26:05;;;;;;;44.00;34.10;;;2.10;99.90;;;;;;5023454;28;20111;-58
2022/01/07 12:28:48;;;;;;;30.67;20.30;;;2.20;99.90;;;;;;5026196;28;20027;-59
2022/01/07 12:31:14;;;;;;;32.40;21.17;;;2.20;99.90;;;;;;5028299;28;20036;-59
2022/01/07 12:33:49;;;;;;;31.02;23.25;;;2.20;99.90;;;;;;5023767;28;20104;-59
2022/01/07 12:36:27;;;;;;;35.25;22.38;;;2.30;99.90;;;;;;5024788;28;20029;-58
2022/01/07 12:39:08;;;;;;;29.75;20.25;;;2.30;99.90;;;;;;5025612;28;20044;-57
2022/01/07 12:41:37;;;;;;;32.28;20.30;;;2.30;99.90;;;;;;5026889;28;20371;-58
2022/01/07 12:44:07;;;;;;;33.47;19.75;;;2.30;99.90;;;;;;5026000;28;20124;-59
2022/01/07 12:46:33;;;;;;;29.48;18.42;;;2.30;99.90;;;;;;5024779;28;20025;-59
2022/01/07 12:48:59;;;;;;;27.23;19.95;;;2.40;99.90;;;;;;5025422;28;20026;-60
2022/01/07 12:51:24;;;;;;;28.52;20.38;;;2.40;99.90;;;;;;5024304;28;20039;-59
2022/01/07 12:53:58;;;;;;;30.75;21.00;;;2.40;99.90;;;;;;5024847;28;20030;-58
2022/01/07 12:56:30;;;;;;;30.95;19.85;;;2.40;99.90;;;;;;5019649;28;20017;-60